sensor_id;sensor_type;location;lat;lon;timestamp;temperature;humidity
22734;DHT22;11534;51.994;5.692;2024-02-14T00:01:23;7.70;99.90
22734;DHT22;11534;51.994;5.692;2024-02-14T00:03:49;7.80;99.90
22734;DHT22;11534;51.994;5.692;2024-02-14T00:06:14;7.80;99.90
22734;DHT22;11534;51.994;5.692;2024-02-14T00:08:40;7.80;99.90
22734;DHT22;11534;51.994;5.692;2024-02-14T00:11:06;7.80;99.90
22734;DHT22;11534;51.994;5.692;2024-02-14T00:13:32;7.80;99.90
22734;DHT22;11534;51.994;5.692;2024-02-14T00:16:00;7.80;99.90
22734;DHT22;11534;51.994;5.692;2024-02-14T00:18:25;7.80;99.90
22734;DHT22;11534;51.994;5.692;2024-02-14T00:20:51;7.80;99.90
22734;DHT22;11534;51.994;5.692;2024-02-14T00:23:18;7.90;99.90
22734;DHT22;11534;51.994;5.692;2024-02-14T00:25:44;7.90;99.90
22734;DHT22;11534;51.994;5.692;2024-02-14T00:28:09;7.90;99.90
22734;DHT22;11534;51.994;5.692;2024-02-14T00:30:35;7.90;99.90
22734;DHT22;11534;51.994;5.692;2024-02-14T00:33:00;8.00;99.90
22734;DHT22;11534;51.994;5.692;2024-02-14T00:35:26;7.90;99.90
22734;DHT22;11534;51.994;5.692;2024-02-14T00:37:52;7.90;99.90
22734;DHT22;11534;51.994;5.692;2024-02-14T00:40:17;7.90;99.90
22734;DHT22;11534;51.994;5.692;2024-02-14T00:42:43;8.00;99.90
22734;DHT22;11534;51.994;5.692;2024-02-14T00:45:09;8.00;99.90
22734;DHT22;11534;51.994;5.692;2024-02-14T00:47:35;7.90;99.90
22734;DHT22;11534;51.994;5.692;2024-02-14T00:50:01;7.90;99.90
22734;DHT22;11534;51.994;5.692;2024-02-14T00:52:28;8.00;99.90
22734;DHT22;11534;51.994;5.692;2024-02-14T00:54:54;8.00;99.90
22734;DHT22;11534;51.994;5.692;2024-02-14T00:57:21;8.00;99.90
22734;DHT22;11534;51.994;5.692;2024-02-14T00:59:51;8.10;99.90
22734;DHT22;11534;51.994;5.692;2024-02-14T01:02:17;8.10;99.90
22734;DHT22;11534;51.994;5.692;2024-02-14T01:04:43;8.10;99.90
22734;DHT22;11534;51.994;5.692;2024-02-14T01:07:09;8.10;99.90
22734;DHT22;11534;51.994;5.692;2024-02-14T01:09:35;8.10;99.90
22734;DHT22;11534;51.994;5.692;2024-02-14T01:12:02;8.10;99.90
22734;DHT22;11534;51.994;5.692;2024-02-14T01:14:27;8.10;99.90
22734;DHT22;11534;51.994;5.692;2024-02-14T01:16:53;8.20;99.90
22734;DHT22;11534;51.994;5.692;2024-02-14T01:19:19;8.30;99.90
22734;DHT22;11534;51.994;5.692;2024-02-14T01:21:45;8.30;99.90
22734;DHT22;11534;51.994;5.692;2024-02-14T01:24:15;8.30;99.90
22734;DHT22;11534;51.994;5.692;2024-02-14T01:26:41;8.30;99.90
22734;DHT22;11534;51.994;5.692;2024-02-14T01:29:07;8.30;99.90
22734;DHT22;11534;51.994;5.692;2024-02-14T01:31:33;8.30;99.90
22734;DHT22;11534;51.994;5.692;2024-02-14T01:34:00;8.30;99.90
22734;DHT22;11534;51.994;5.692;2024-02-14T01:36:28;8.30;99.90
22734;DHT22;11534;51.994;5.692;2024-02-14T01:38:54;8.40;99.90
22734;DHT22;11534;51.994;5.692;2024-02-14T01:41:20;8.40;99.90
22734;DHT22;11534;51.994;5.692;2024-02-14T01:43:47;8.40;99.90
22734;DHT22;11534;51.994;5.692;2024-02-14T01:46:12;8.40;99.90
22734;DHT22;11534;51.994;5.692;2024-02-14T01:48:39;8.30;99.90
22734;DHT22;11534;51.994;5.692;2024-02-14T01:51:06;8.40;99.90
22734;DHT22;11534;51.994;5.692;2024-02-14T01:53:34;8.40;99.90
22734;DHT22;11534;51.994;5.692;2024-02-14T01:56:02;8.40;99.90
22734;DHT22;11534;51.994;5.692;2024-02-14T01:58:30;8.40;99.90
22734;DHT22;11534;51.994;5.692;2024-02-14T02:00:56;8.40;99.90
22734;DHT22;11534;51.994;5.692;2024-02-14T02:03:23;8.50;99.90
22734;DHT22;11534;51.994;5.692;2024-02-14T02:05:49;8.50;99.90
22734;DHT22;11534;51.994;5.692;2024-02-14T02:08:14;8.50;99.90
22734;DHT22;11534;51.994;5.692;2024-02-14T02:10:40;8.50;99.90
22734;DHT22;11534;51.994;5.692;2024-02-14T02:13:06;8.50;99.90
22734;DHT22;11534;51.994;5.692;2024-02-14T02:15:31;8.50;99.90
22734;DHT22;11534;51.994;5.692;2024-02-14T02:17:57;8.60;99.90
22734;DHT22;11534;51.994;5.692;2024-02-14T02:20:24;8.60;99.90
22734;DHT22;11534;51.994;5.692;2024-02-14T02:22:53;8.60;99.90
22734;DHT22;11534;51.994;5.692;2024-02-14T02:25:18;8.60;99.90
22734;DHT22;11534;51.994;5.692;2024-02-14T02:27:49;8.60;99.90
22734;DHT22;11534;51.994;5.692;2024-02-14T02:30:14;8.60;99.90
22734;DHT22;11534;51.994;5.692;2024-02-14T02:32:40;8.60;99.90
22734;DHT22;11534;51.994;5.692;2024-02-14T02:35:08;8.60;99.90
22734;DHT22;11534;51.994;5.692;2024-02-14T02:37:35;8.70;99.90
22734;DHT22;11534;51.994;5.692;2024-02-14T02:40:01;8.70;99.90
22734;DHT22;11534;51.994;5.692;2024-02-14T02:42:27;8.70;99.90
22734;DHT22;11534;51.994;5.692;2024-02-14T02:44:53;8.70;99.90
22734;DHT22;11534;51.994;5.692;2024-02-14T02:47:19;8.70;99.90
22734;DHT22;11534;51.994;5.692;2024-02-14T02:49:45;8.70;99.90
22734;DHT22;11534;51.994;5.692;2024-02-14T02:52:11;8.80;99.90
22734;DHT22;11534;51.994;5.692;2024-02-14T02:54:37;8.70;99.90
22734;DHT22;11534;51.994;5.692;2024-02-14T02:57:07;8.70;99.90
22734;DHT22;11534;51.994;5.692;2024-02-14T02:59:34;8.80;99.90
22734;DHT22;11534;51.994;5.692;2024-02-14T03:02:00;8.80;99.90
22734;DHT22;11534;51.994;5.692;2024-02-14T03:04:27;8.80;99.90
22734;DHT22;11534;51.994;5.692;2024-02-14T03:06:53;8.80;99.90
22734;DHT22;11534;51.994;5.692;2024-02-14T03:09:19;8.80;99.90
22734;DHT22;11534;51.994;5.692;2024-02-14T03:11:48;8.80;99.90
22734;DHT22;11534;51.994;5.692;2024-02-14T03:14:14;8.80;99.90
22734;DHT22;11534;51.994;5.692;2024-02-14T03:16:40;8.80;99.90
22734;DHT22;11534;51.994;5.692;2024-02-14T03:19:06;8.80;99.90
22734;DHT22;11534;51.994;5.692;2024-02-14T03:21:32;8.80;99.90
22734;DHT22;11534;51.994;5.692;2024-02-14T03:23:58;8.90;99.90
22734;DHT22;11534;51.994;5.692;2024-02-14T03:26:24;8.90;99.90
22734;DHT22;11534;51.994;5.692;2024-02-14T03:28:49;8.90;99.90
22734;DHT22;11534;51.994;5.692;2024-02-14T03:31:15;8.90;99.90
22734;DHT22;11534;51.994;5.692;2024-02-14T03:33:42;8.90;99.90
22734;DHT22;11534;51.994;5.692;2024-02-14T03:36:07;8.90;99.90
22734;DHT22;11534;51.994;5.692;2024-02-14T03:38:34;9.00;99.90
22734;DHT22;11534;51.994;5.692;2024-02-14T03:40:59;8.90;99.90
22734;DHT22;11534;51.994;5.692;2024-02-14T03:43:25;9.00;99.90
22734;DHT22;11534;51.994;5.692;2024-02-14T03:45:50;8.90;99.90
22734;DHT22;11534;51.994;5.692;2024-02-14T03:48:17;9.00;99.90
22734;DHT22;11534;51.994;5.692;2024-02-14T03:50:43;9.00;99.90
22734;DHT22;11534;51.994;5.692;2024-02-14T03:53:09;9.00;99.90
22734;DHT22;11534;51.994;5.692;2024-02-14T03:55:37;9.00;99.90
22734;DHT22;11534;51.994;5.692;2024-02-14T03:58:03;9.10;99.90
22734;DHT22;11534;51.994;5.692;2024-02-14T04:00:29;9.10;99.90
22734;DHT22;11534;51.994;5.692;2024-02-14T04:02:55;9.10;99.90
22734;DHT22;11534;51.994;5.692;2024-02-14T04:05:25;9.10;99.90
22734;DHT22;11534;51.994;5.692;2024-02-14T04:07:52;9.10;99.90
22734;DHT22;11534;51.994;5.692;2024-02-14T04:10:20;9.10;99.90
22734;DHT22;11534;51.994;5.692;2024-02-14T04:12:46;9.20;99.90
22734;DHT22;11534;51.994;5.692;2024-02-14T04:15:12;9.20;99.90
22734;DHT22;11534;51.994;5.692;2024-02-14T04:17:41;9.20;99.90
22734;DHT22;11534;51.994;5.692;2024-02-14T04:20:07;9.20;99.90
22734;DHT22;11534;51.994;5.692;2024-02-14T04:22:33;9.20;99.90
22734;DHT22;11534;51.994;5.692;2024-02-14T04:24:58;9.20;99.90
22734;DHT22;11534;51.994;5.692;2024-02-14T04:27:25;9.20;99.90
22734;DHT22;11534;51.994;5.692;2024-02-14T04:29:50;9.20;99.90
22734;DHT22;11534;51.994;5.692;2024-02-14T04:32:16;9.20;99.90
22734;DHT22;11534;51.994;5.692;2024-02-14T04:34:42;9.20;99.90
22734;DHT22;11534;51.994;5.692;2024-02-14T04:37:09;9.20;99.90
22734;DHT22;11534;51.994;5.692;2024-02-14T04:39:41;9.30;99.90
22734;DHT22;11534;51.994;5.692;2024-02-14T04:42:07;9.30;99.90
22734;DHT22;11534;51.994;5.692;2024-02-14T04:44:34;9.30;99.90
22734;DHT22;11534;51.994;5.692;2024-02-14T04:47:02;9.30;99.90
22734;DHT22;11534;51.994;5.692;2024-02-14T04:49:28;9.30;99.90
22734;DHT22;11534;51.994;5.692;2024-02-14T04:51:57;9.30;99.90
22734;DHT22;11534;51.994;5.692;2024-02-14T04:54:23;9.40;99.90
22734;DHT22;11534;51.994;5.692;2024-02-14T04:56:48;9.30;99.90
22734;DHT22;11534;51.994;5.692;2024-02-14T04:59:14;9.30;99.90
22734;DHT22;11534;51.994;5.692;2024-02-14T05:01:39;9.30;99.90
22734;DHT22;11534;51.994;5.692;2024-02-14T05:04:08;9.40;99.90
22734;DHT22;11534;51.994;5.692;2024-02-14T05:06:34;9.30;99.90
22734;DHT22;11534;51.994;5.692;2024-02-14T05:09:00;9.40;99.90
22734;DHT22;11534;51.994;5.692;2024-02-14T05:11:25;9.40;99.90
22734;DHT22;11534;51.994;5.692;2024-02-14T05:13:51;9.30;99.90
22734;DHT22;11534;51.994;5.692;2024-02-14T05:16:21;9.30;99.90
22734;DHT22;11534;51.994;5.692;2024-02-14T05:18:47;9.40;99.90
22734;DHT22;11534;51.994;5.692;2024-02-14T05:21:13;9.40;99.90
22734;DHT22;11534;51.994;5.692;2024-02-14T05:23:39;9.40;99.90
22734;DHT22;11534;51.994;5.692;2024-02-14T05:26:05;9.40;99.90
22734;DHT22;11534;51.994;5.692;2024-02-14T05:28:31;9.40;99.90
22734;DHT22;11534;51.994;5.692;2024-02-14T05:30:58;9.40;99.90
22734;DHT22;11534;51.994;5.692;2024-02-14T05:33:24;9.40;99.90
22734;DHT22;11534;51.994;5.692;2024-02-14T05:35:49;9.40;99.90
22734;DHT22;11534;51.994;5.692;2024-02-14T05:38:15;9.50;99.90
22734;DHT22;11534;51.994;5.692;2024-02-14T05:40:41;9.50;99.90
22734;DHT22;11534;51.994;5.692;2024-02-14T05:43:09;9.50;99.90
22734;DHT22;11534;51.994;5.692;2024-02-14T05:45:35;9.40;99.90
22734;DHT22;11534;51.994;5.692;2024-02-14T05:48:01;9.40;99.90
22734;DHT22;11534;51.994;5.692;2024-02-14T05:50:27;9.40;99.90
22734;DHT22;11534;51.994;5.692;2024-02-14T05:52:53;9.40;99.90
22734;DHT22;11534;51.994;5.692;2024-02-14T05:55:19;9.40;99.90
22734;DHT22;11534;51.994;5.692;2024-02-14T05:57:44;9.40;99.90
22734;DHT22;11534;51.994;5.692;2024-02-14T06:00:10;9.40;99.90
22734;DHT22;11534;51.994;5.692;2024-02-14T06:02:38;9.40;99.90
22734;DHT22;11534;51.994;5.692;2024-02-14T06:05:06;9.40;99.90
22734;DHT22;11534;51.994;5.692;2024-02-14T06:07:35;9.40;99.90
22734;DHT22;11534;51.994;5.692;2024-02-14T06:10:01;9.40;99.90
22734;DHT22;11534;51.994;5.692;2024-02-14T06:12:27;9.40;99.90
22734;DHT22;11534;51.994;5.692;2024-02-14T06:14:52;9.50;99.90
22734;DHT22;11534;51.994;5.692;2024-02-14T06:17:18;9.40;99.90
22734;DHT22;11534;51.994;5.692;2024-02-14T06:19:44;9.40;99.90
22734;DHT22;11534;51.994;5.692;2024-02-14T06:22:09;9.50;99.90
22734;DHT22;11534;51.994;5.692;2024-02-14T06:24:36;9.50;99.90
22734;DHT22;11534;51.994;5.692;2024-02-14T06:27:01;9.50;99.90
22734;DHT22;11534;51.994;5.692;2024-02-14T06:29:27;9.50;99.90
22734;DHT22;11534;51.994;5.692;2024-02-14T06:31:53;9.50;99.90
22734;DHT22;11534;51.994;5.692;2024-02-14T06:34:19;9.50;99.90
22734;DHT22;11534;51.994;5.692;2024-02-14T06:36:46;9.40;99.90
22734;DHT22;11534;51.994;5.692;2024-02-14T06:39:12;9.50;99.90
22734;DHT22;11534;51.994;5.692;2024-02-14T06:41:38;9.50;99.90
22734;DHT22;11534;51.994;5.692;2024-02-14T06:44:04;9.50;99.90
22734;DHT22;11534;51.994;5.692;2024-02-14T06:46:30;9.50;99.90
22734;DHT22;11534;51.994;5.692;2024-02-14T06:48:56;9.40;99.90
22734;DHT22;11534;51.994;5.692;2024-02-14T06:51:22;9.50;99.90
22734;DHT22;11534;51.994;5.692;2024-02-14T06:53:49;9.50;99.90
22734;DHT22;11534;51.994;5.692;2024-02-14T06:56:15;9.50;99.90
22734;DHT22;11534;51.994;5.692;2024-02-14T06:58:41;9.60;99.90
22734;DHT22;11534;51.994;5.692;2024-02-14T07:01:07;9.60;99.90
22734;DHT22;11534;51.994;5.692;2024-02-14T07:03:33;9.60;99.90
22734;DHT22;11534;51.994;5.692;2024-02-14T07:05:59;9.60;99.90
22734;DHT22;11534;51.994;5.692;2024-02-14T07:08:25;9.50;99.90
22734;DHT22;11534;51.994;5.692;2024-02-14T07:10:54;9.60;99.90
22734;DHT22;11534;51.994;5.692;2024-02-14T07:13:20;9.60;99.90
22734;DHT22;11534;51.994;5.692;2024-02-14T07:15:46;9.60;99.90
22734;DHT22;11534;51.994;5.692;2024-02-14T07:18:11;9.60;99.90
22734;DHT22;11534;51.994;5.692;2024-02-14T07:20:37;9.60;99.90
22734;DHT22;11534;51.994;5.692;2024-02-14T07:23:03;9.60;99.90
22734;DHT22;11534;51.994;5.692;2024-02-14T07:25:29;9.60;99.90
22734;DHT22;11534;51.994;5.692;2024-02-14T07:27:55;9.60;99.90
22734;DHT22;11534;51.994;5.692;2024-02-14T07:30:20;9.70;99.90
22734;DHT22;11534;51.994;5.692;2024-02-14T07:32:46;9.60;99.90
22734;DHT22;11534;51.994;5.692;2024-02-14T07:35:12;9.70;99.90
22734;DHT22;11534;51.994;5.692;2024-02-14T07:37:42;9.60;99.90
22734;DHT22;11534;51.994;5.692;2024-02-14T07:40:08;9.70;99.90
22734;DHT22;11534;51.994;5.692;2024-02-14T07:42:33;9.70;99.90
22734;DHT22;11534;51.994;5.692;2024-02-14T07:44:59;9.70;99.90
22734;DHT22;11534;51.994;5.692;2024-02-14T07:47:25;9.70;99.90
22734;DHT22;11534;51.994;5.692;2024-02-14T07:49:50;9.60;99.90
22734;DHT22;11534;51.994;5.692;2024-02-14T07:52:18;9.60;99.90
22734;DHT22;11534;51.994;5.692;2024-02-14T07:54:44;9.60;99.90
22734;DHT22;11534;51.994;5.692;2024-02-14T07:57:09;9.60;99.90
22734;DHT22;11534;51.994;5.692;2024-02-14T07:59:35;9.70;99.90
22734;DHT22;11534;51.994;5.692;2024-02-14T08:02:00;9.80;99.90
22734;DHT22;11534;51.994;5.692;2024-02-14T08:04:26;9.80;99.90
22734;DHT22;11534;51.994;5.692;2024-02-14T08:06:52;9.80;99.90
22734;DHT22;11534;51.994;5.692;2024-02-14T08:09:17;9.80;99.90
22734;DHT22;11534;51.994;5.692;2024-02-14T08:11:43;9.90;99.90
22734;DHT22;11534;51.994;5.692;2024-02-14T08:14:08;9.90;99.90
22734;DHT22;11534;51.994;5.692;2024-02-14T08:16:34;9.90;99.90
22734;DHT22;11534;51.994;5.692;2024-02-14T08:19:01;9.90;99.90
22734;DHT22;11534;51.994;5.692;2024-02-14T08:21:28;9.90;99.90
22734;DHT22;11534;51.994;5.692;2024-02-14T08:23:54;9.80;99.90
22734;DHT22;11534;51.994;5.692;2024-02-14T08:26:21;9.90;99.90
22734;DHT22;11534;51.994;5.692;2024-02-14T08:28:48;9.90;99.90
22734;DHT22;11534;51.994;5.692;2024-02-14T08:31:14;9.80;99.90
22734;DHT22;11534;51.994;5.692;2024-02-14T08:33:39;9.90;99.90
22734;DHT22;11534;51.994;5.692;2024-02-14T08:36:06;9.80;99.90
22734;DHT22;11534;51.994;5.692;2024-02-14T08:38:35;9.90;99.90
22734;DHT22;11534;51.994;5.692;2024-02-14T08:41:06;9.80;99.90
22734;DHT22;11534;51.994;5.692;2024-02-14T08:43:38;9.90;99.90
22734;DHT22;11534;51.994;5.692;2024-02-14T08:46:03;9.90;99.90
22734;DHT22;11534;51.994;5.692;2024-02-14T08:48:34;9.90;99.90
22734;DHT22;11534;51.994;5.692;2024-02-14T08:51:00;9.90;99.90
22734;DHT22;11534;51.994;5.692;2024-02-14T08:53:26;9.90;99.90
22734;DHT22;11534;51.994;5.692;2024-02-14T08:55:52;10.00;99.90
22734;DHT22;11534;51.994;5.692;2024-02-14T08:58:32;10.00;99.90
22734;DHT22;11534;51.994;5.692;2024-02-14T09:04:14;10.10;99.90
22734;DHT22;11534;51.994;5.692;2024-02-14T09:06:40;10.10;99.90
22734;DHT22;11534;51.994;5.692;2024-02-14T09:09:07;10.10;99.90
22734;DHT22;11534;51.994;5.692;2024-02-14T09:11:35;10.20;99.90
22734;DHT22;11534;51.994;5.692;2024-02-14T09:14:01;10.20;99.90
22734;DHT22;11534;51.994;5.692;2024-02-14T09:16:34;10.20;99.90
22734;DHT22;11534;51.994;5.692;2024-02-14T09:19:00;10.20;99.90
22734;DHT22;11534;51.994;5.692;2024-02-14T09:21:30;10.20;99.90
22734;DHT22;11534;51.994;5.692;2024-02-14T09:23:58;10.20;99.90
22734;DHT22;11534;51.994;5.692;2024-02-14T09:26:24;10.20;99.90
22734;DHT22;11534;51.994;5.692;2024-02-14T09:28:50;10.10;99.90
22734;DHT22;11534;51.994;5.692;2024-02-14T09:31:19;10.20;99.90
22734;DHT22;11534;51.994;5.692;2024-02-14T09:33:48;10.20;99.90
22734;DHT22;11534;51.994;5.692;2024-02-14T09:36:26;10.20;99.90
22734;DHT22;11534;51.994;5.692;2024-02-14T09:38:54;10.30;99.90
22734;DHT22;11534;51.994;5.692;2024-02-14T09:41:42;10.20;99.90
22734;DHT22;11534;51.994;5.692;2024-02-14T09:44:16;10.30;99.90
22734;DHT22;11534;51.994;5.692;2024-02-14T09:46:54;10.30;99.90
22734;DHT22;11534;51.994;5.692;2024-02-14T09:49:21;10.30;99.90
22734;DHT22;11534;51.994;5.692;2024-02-14T09:51:48;10.30;99.90
22734;DHT22;11534;51.994;5.692;2024-02-14T09:54:16;10.30;99.90
22734;DHT22;11534;51.994;5.692;2024-02-14T09:56:43;10.30;99.90
22734;DHT22;11534;51.994;5.692;2024-02-14T09:59:13;10.30;99.90
22734;DHT22;11534;51.994;5.692;2024-02-14T10:01:40;10.30;99.90
22734;DHT22;11534;51.994;5.692;2024-02-14T10:04:06;10.30;99.90
22734;DHT22;11534;51.994;5.692;2024-02-14T10:06:32;10.30;99.90
22734;DHT22;11534;51.994;5.692;2024-02-14T10:08:59;10.40;99.90
22734;DHT22;11534;51.994;5.692;2024-02-14T10:11:24;10.40;99.90
22734;DHT22;11534;51.994;5.692;2024-02-14T10:13:52;10.40;99.90
22734;DHT22;11534;51.994;5.692;2024-02-14T10:16:19;10.40;99.90
22734;DHT22;11534;51.994;5.692;2024-02-14T10:18:45;10.40;99.90
22734;DHT22;11534;51.994;5.692;2024-02-14T10:21:16;10.40;99.90
22734;DHT22;11534;51.994;5.692;2024-02-14T10:23:45;10.50;99.90
22734;DHT22;11534;51.994;5.692;2024-02-14T10:26:15;10.50;99.90
22734;DHT22;11534;51.994;5.692;2024-02-14T10:28:44;10.50;99.90
22734;DHT22;11534;51.994;5.692;2024-02-14T10:31:11;10.50;99.90
22734;DHT22;11534;51.994;5.692;2024-02-14T10:33:37;10.50;99.90
22734;DHT22;11534;51.994;5.692;2024-02-14T10:36:03;10.50;99.90
22734;DHT22;11534;51.994;5.692;2024-02-14T10:38:32;10.50;99.90
22734;DHT22;11534;51.994;5.692;2024-02-14T10:41:00;10.60;99.90
22734;DHT22;11534;51.994;5.692;2024-02-14T10:43:27;10.60;99.90
22734;DHT22;11534;51.994;5.692;2024-02-14T10:45:53;10.60;99.90
22734;DHT22;11534;51.994;5.692;2024-02-14T10:48:22;10.60;99.90
22734;DHT22;11534;51.994;5.692;2024-02-14T10:50:53;10.60;99.90
22734;DHT22;11534;51.994;5.692;2024-02-14T10:53:19;10.60;99.90
22734;DHT22;11534;51.994;5.692;2024-02-14T10:55:48;10.60;99.90
22734;DHT22;11534;51.994;5.692;2024-02-14T10:58:15;10.60;99.90
22734;DHT22;11534;51.994;5.692;2024-02-14T11:00:42;10.70;99.90
22734;DHT22;11534;51.994;5.692;2024-02-14T11:03:08;10.70;99.90
22734;DHT22;11534;51.994;5.692;2024-02-14T11:05:46;10.70;99.90
22734;DHT22;11534;51.994;5.692;2024-02-14T11:08:30;10.80;99.90
22734;DHT22;11534;51.994;5.692;2024-02-14T11:11:01;10.80;99.90
22734;DHT22;11534;51.994;5.692;2024-02-14T11:13:30;10.90;99.90
22734;DHT22;11534;51.994;5.692;2024-02-14T11:15:57;10.90;99.90
22734;DHT22;11534;51.994;5.692;2024-02-14T11:18:28;10.90;99.90
22734;DHT22;11534;51.994;5.692;2024-02-14T11:21:03;10.90;99.90
22734;DHT22;11534;51.994;5.692;2024-02-14T11:23:30;10.90;99.90
22734;DHT22;11534;51.994;5.692;2024-02-14T11:26:00;11.00;99.90
22734;DHT22;11534;51.994;5.692;2024-02-14T11:28:28;11.00;99.90
22734;DHT22;11534;51.994;5.692;2024-02-14T11:31:01;11.00;99.90
22734;DHT22;11534;51.994;5.692;2024-02-14T11:33:29;10.90;99.90
22734;DHT22;11534;51.994;5.692;2024-02-14T11:35:55;10.90;99.90
22734;DHT22;11534;51.994;5.692;2024-02-14T11:38:23;10.90;99.90
22734;DHT22;11534;51.994;5.692;2024-02-14T11:40:53;10.90;99.90
22734;DHT22;11534;51.994;5.692;2024-02-14T11:43:20;11.00;99.90
22734;DHT22;11534;51.994;5.692;2024-02-14T11:45:47;10.90;99.90
22734;DHT22;11534;51.994;5.692;2024-02-14T11:48:18;10.90;99.90
22734;DHT22;11534;51.994;5.692;2024-02-14T11:50:45;10.90;99.90
22734;DHT22;11534;51.994;5.692;2024-02-14T11:53:12;10.90;99.90
22734;DHT22;11534;51.994;5.692;2024-02-14T11:55:39;10.90;99.90
22734;DHT22;11534;51.994;5.692;2024-02-14T11:58:13;10.90;99.90
22734;DHT22;11534;51.994;5.692;2024-02-14T12:00:43;11.00;99.90
22734;DHT22;11534;51.994;5.692;2024-02-14T12:03:29;10.90;99.90
22734;DHT22;11534;51.994;5.692;2024-02-14T12:05:55;10.90;99.90
22734;DHT22;11534;51.994;5.692;2024-02-14T12:08:22;11.00;99.90
22734;DHT22;11534;51.994;5.692;2024-02-14T12:10:48;11.00;99.90
22734;DHT22;11534;51.994;5.692;2024-02-14T12:13:25;11.00;99.90
22734;DHT22;11534;51.994;5.692;2024-02-14T12:15:51;11.00;99.90
22734;DHT22;11534;51.994;5.692;2024-02-14T12:18:18;11.00;99.90
22734;DHT22;11534;51.994;5.692;2024-02-14T12:20:46;11.00;99.90
22734;DHT22;11534;51.994;5.692;2024-02-14T12:23:16;11.10;99.90
22734;DHT22;11534;51.994;5.692;2024-02-14T12:25:45;11.10;99.90
22734;DHT22;11534;51.994;5.692;2024-02-14T12:28:19;11.10;99.90
22734;DHT22;11534;51.994;5.692;2024-02-14T12:30:49;11.10;99.90
22734;DHT22;11534;51.994;5.692;2024-02-14T12:33:17;11.10;99.90
22734;DHT22;11534;51.994;5.692;2024-02-14T12:35:45;11.10;99.90
22734;DHT22;11534;51.994;5.692;2024-02-14T12:38:13;11.10;99.90
22734;DHT22;11534;51.994;5.692;2024-02-14T12:40:39;11.10;99.90
22734;DHT22;11534;51.994;5.692;2024-02-14T12:43:10;11.10;99.90
22734;DHT22;11534;51.994;5.692;2024-02-14T12:45:40;11.10;99.90
22734;DHT22;11534;51.994;5.692;2024-02-14T12:48:07;11.10;99.90
22734;DHT22;11534;51.994;5.692;2024-02-14T12:50:37;11.10;99.90
22734;DHT22;11534;51.994;5.692;2024-02-14T12:53:09;11.10;99.90
22734;DHT22;11534;51.994;5.692;2024-02-14T12:55:36;11.10;99.90
22734;DHT22;11534;51.994;5.692;2024-02-14T12:58:02;11.10;99.90
22734;DHT22;11534;51.994;5.692;2024-02-14T13:00:32;11.10;99.90
22734;DHT22;11534;51.994;5.692;2024-02-14T13:02:58;11.10;99.90
22734;DHT22;11534;51.994;5.692;2024-02-14T13:05:25;11.10;99.90
22734;DHT22;11534;51.994;5.692;2024-02-14T13:07:56;11.00;99.90
22734;DHT22;11534;51.994;5.692;2024-02-14T13:10:22;11.10;99.90
22734;DHT22;11534;51.994;5.692;2024-02-14T13:12:48;11.10;99.90
22734;DHT22;11534;51.994;5.692;2024-02-14T13:15:15;11.10;99.90
22734;DHT22;11534;51.994;5.692;2024-02-14T13:17:42;11.10;99.90
22734;DHT22;11534;51.994;5.692;2024-02-14T13:20:08;11.10;99.90
22734;DHT22;11534;51.994;5.692;2024-02-14T13:22:34;11.10;99.90
22734;DHT22;11534;51.994;5.692;2024-02-14T13:24:59;11.10;99.90
22734;DHT22;11534;51.994;5.692;2024-02-14T13:27:30;11.20;99.90
22734;DHT22;11534;51.994;5.692;2024-02-14T13:29:56;11.10;99.90
22734;DHT22;11534;51.994;5.692;2024-02-14T13:32:21;11.20;99.90
22734;DHT22;11534;51.994;5.692;2024-02-14T13:34:47;11.20;99.90
22734;DHT22;11534;51.994;5.692;2024-02-14T13:37:15;11.20;99.90
22734;DHT22;11534;51.994;5.692;2024-02-14T13:39:41;11.20;99.90
22734;DHT22;11534;51.994;5.692;2024-02-14T13:42:07;11.20;99.90
22734;DHT22;11534;51.994;5.692;2024-02-14T13:44:33;11.20;99.90
22734;DHT22;11534;51.994;5.692;2024-02-14T13:46:59;11.20;99.90
22734;DHT22;11534;51.994;5.692;2024-02-14T13:49:25;11.20;99.90
22734;DHT22;11534;51.994;5.692;2024-02-14T13:51:51;11.20;99.90
22734;DHT22;11534;51.994;5.692;2024-02-14T13:54:22;11.20;99.90
22734;DHT22;11534;51.994;5.692;2024-02-14T13:56:50;11.20;99.90
22734;DHT22;11534;51.994;5.692;2024-02-14T13:59:17;11.20;99.90
22734;DHT22;11534;51.994;5.692;2024-02-14T14:01:45;11.20;99.90
22734;DHT22;11534;51.994;5.692;2024-02-14T14:04:11;11.20;99.90
22734;DHT22;11534;51.994;5.692;2024-02-14T14:06:41;11.20;99.90
22734;DHT22;11534;51.994;5.692;2024-02-14T14:09:06;11.30;99.90
22734;DHT22;11534;51.994;5.692;2024-02-14T14:11:36;11.30;99.90
22734;DHT22;11534;51.994;5.692;2024-02-14T14:14:03;11.30;99.90
22734;DHT22;11534;51.994;5.692;2024-02-14T14:16:28;11.20;99.90
22734;DHT22;11534;51.994;5.692;2024-02-14T14:18:54;11.30;99.90
22734;DHT22;11534;51.994;5.692;2024-02-14T14:21:20;11.30;99.90
22734;DHT22;11534;51.994;5.692;2024-02-14T14:23:46;11.30;99.90
22734;DHT22;11534;51.994;5.692;2024-02-14T14:26:12;11.40;99.90
22734;DHT22;11534;51.994;5.692;2024-02-14T14:28:39;11.30;99.90
22734;DHT22;11534;51.994;5.692;2024-02-14T14:31:04;11.40;99.90
22734;DHT22;11534;51.994;5.692;2024-02-14T14:33:30;11.30;99.90
22734;DHT22;11534;51.994;5.692;2024-02-14T14:35:56;11.30;99.90
22734;DHT22;11534;51.994;5.692;2024-02-14T14:38:21;11.30;99.90
22734;DHT22;11534;51.994;5.692;2024-02-14T14:40:47;11.40;99.90
22734;DHT22;11534;51.994;5.692;2024-02-14T14:43:14;11.40;99.90
22734;DHT22;11534;51.994;5.692;2024-02-14T14:45:40;11.40;99.90
22734;DHT22;11534;51.994;5.692;2024-02-14T14:48:07;11.40;99.90
22734;DHT22;11534;51.994;5.692;2024-02-14T14:50:35;11.50;99.90
22734;DHT22;11534;51.994;5.692;2024-02-14T14:53:00;11.50;99.90
22734;DHT22;11534;51.994;5.692;2024-02-14T14:55:55;11.50;99.90
22734;DHT22;11534;51.994;5.692;2024-02-14T14:58:22;11.50;99.90
22734;DHT22;11534;51.994;5.692;2024-02-14T15:00:49;11.40;99.90
22734;DHT22;11534;51.994;5.692;2024-02-14T15:03:18;11.50;99.90
22734;DHT22;11534;51.994;5.692;2024-02-14T15:05:47;11.50;99.90
22734;DHT22;11534;51.994;5.692;2024-02-14T15:08:15;11.50;99.90
22734;DHT22;11534;51.994;5.692;2024-02-14T15:10:43;11.50;99.90
22734;DHT22;11534;51.994;5.692;2024-02-14T15:13:09;11.50;99.90
22734;DHT22;11534;51.994;5.692;2024-02-14T15:15:35;11.50;99.90
22734;DHT22;11534;51.994;5.692;2024-02-14T15:18:01;11.50;99.90
22734;DHT22;11534;51.994;5.692;2024-02-14T15:20:27;11.50;99.90
22734;DHT22;11534;51.994;5.692;2024-02-14T15:22:53;11.50;99.90
22734;DHT22;11534;51.994;5.692;2024-02-14T15:25:18;11.50;99.90
22734;DHT22;11534;51.994;5.692;2024-02-14T15:27:45;11.50;99.90
22734;DHT22;11534;51.994;5.692;2024-02-14T15:30:23;11.60;99.90
22734;DHT22;11534;51.994;5.692;2024-02-14T15:33:08;11.60;99.90
22734;DHT22;11534;51.994;5.692;2024-02-14T15:35:52;11.60;99.90
22734;DHT22;11534;51.994;5.692;2024-02-14T15:38:19;11.60;99.90
22734;DHT22;11534;51.994;5.692;2024-02-14T15:40:46;11.60;99.90
22734;DHT22;11534;51.994;5.692;2024-02-14T15:43:12;11.60;99.90